createdAt,value
2017-10-10T00:04:58.502Z,21.9
2017-10-10T00:10:04.295Z,21.9
2017-10-10T00:15:09.388Z,21.9
2017-10-10T00:20:15.156Z,21.9
2017-10-10T00:25:19.901Z,21.9
2017-10-10T00:30:24.989Z,21.9
2017-10-10T00:35:31.104Z,21.9
2017-10-10T00:40:36.190Z,21.9
2017-10-10T00:45:41.278Z,21.9
2017-10-10T00:50:47.061Z,21.9
2017-10-10T00:55:52.494Z,21.9
2017-10-10T01:00:58.269Z,21.9
2017-10-10T01:06:03.011Z,21.9
2017-10-10T01:11:08.099Z,21.9
2017-10-10T01:16:13.527Z,21.9
2017-10-10T01:21:18.262Z,21.9
2017-10-10T01:26:23.347Z,21.9
2017-10-10T01:31:28.776Z,21.9
2017-10-10T01:36:33.858Z,21.9
2017-10-10T01:41:38.941Z,21.9
2017-10-10T01:46:44.368Z,21.9
2017-10-10T01:51:49.791Z,21.9
2017-10-10T01:56:55.218Z,21.8
2017-10-10T02:02:00.299Z,21.8
2017-10-10T02:07:05.725Z,21.8
2017-10-10T02:12:10.465Z,21.8
2017-10-10T02:17:15.896Z,21.8
2017-10-10T02:22:20.632Z,21.8
2017-10-10T02:27:26.057Z,21.8
2017-10-10T02:32:31.194Z,21.8
2017-10-10T02:37:37.327Z,21.8
2017-10-10T02:42:42.429Z,21.8
2017-10-10T02:47:48.751Z,21.8
2017-10-10T02:52:53.204Z,21.8
2017-10-10T02:57:58.986Z,21.8
2017-10-10T03:03:04.769Z,21.8
2017-10-10T03:08:10.184Z,21.8
2017-10-10T03:13:15.957Z,21.8
2017-10-10T03:18:21.041Z,21.8
2017-10-10T03:23:26.463Z,21.8
2017-10-10T03:28:31.547Z,21.7
2017-10-10T03:33:36.286Z,21.7
2017-10-10T03:38:41.711Z,21.7
2017-10-10T03:43:46.796Z,21.7
2017-10-10T03:48:52.222Z,21.7
2017-10-10T03:53:57.657Z,21.7
2017-10-10T03:59:02.737Z,21.7
2017-10-10T04:04:08.505Z,21.7
2017-10-10T04:09:13.926Z,21.7
2017-10-10T04:14:19.012Z,21.7
2017-10-10T04:19:24.102Z,21.8
2017-10-10T04:24:28.838Z,21.8
2017-10-10T04:29:33.578Z,21.8
2017-10-10T04:34:38.660Z,21.8
2017-10-10T04:39:44.086Z,21.8
2017-10-10T04:44:49.529Z,21.8
2017-10-10T04:49:54.955Z,21.8
2017-10-10T04:54:59.694Z,21.8
2017-10-10T05:00:05.122Z,21.9
2017-10-10T05:05:11.250Z,21.9
2017-10-10T05:10:15.989Z,21.9
2017-10-10T05:15:20.729Z,21.9
2017-10-10T05:20:26.499Z,21.9
2017-10-10T05:25:31.271Z,21.9
2017-10-10T05:30:36.714Z,21.9
2017-10-10T05:35:42.144Z,22
2017-10-10T05:40:47.572Z,22
2017-10-10T05:45:53.351Z,22
2017-10-10T05:50:58.091Z,21.9
2017-10-10T05:56:02.831Z,21.9
2017-10-10T06:01:08.258Z,21.9
2017-10-10T06:06:13.001Z,21.9
2017-10-10T06:11:18.099Z,21.9
2017-10-10T06:16:22.853Z,22
2017-10-10T06:21:27.579Z,22
2017-10-10T06:26:32.665Z,22
2017-10-10T06:31:37.746Z,22
2017-10-10T06:36:42.831Z,22
2017-10-10T06:41:47.914Z,22
2017-10-10T06:46:53.348Z,22
2017-10-10T06:51:59.120Z,22
2017-10-10T06:57:04.204Z,22
2017-10-10T07:02:09.978Z,22
2017-10-10T07:07:15.065Z,22
2017-10-10T07:12:19.808Z,22
2017-10-10T07:17:25.234Z,22
2017-10-10T07:22:29.632Z,22
2017-10-10T07:27:34.717Z,22
2017-10-10T07:32:40.154Z,22
2017-10-10T07:37:45.937Z,22
2017-10-10T07:42:51.022Z,22
2017-10-10T07:47:56.108Z,22
2017-10-10T07:53:01.536Z,22
2017-10-10T07:58:06.277Z,22.1
2017-10-10T08:03:12.056Z,22.1
2017-10-10T08:08:17.494Z,22.1
2017-10-10T08:13:22.921Z,22.1
2017-10-10T08:18:28.696Z,22.1
2017-10-10T08:23:33.781Z,22.1
2017-10-10T08:28:38.516Z,22.1
2017-10-10T08:33:44.296Z,22.1
2017-10-10T08:38:49.368Z,22.1
2017-10-10T08:43:54.107Z,22.1
2017-10-10T08:48:59.191Z,22.1
2017-10-10T08:54:04.629Z,22.1
2017-10-10T08:59:09.721Z,22.1
2017-10-10T09:04:15.141Z,22.1
2017-10-10T09:09:20.222Z,22.1
2017-10-10T09:14:24.960Z,22.1
2017-10-10T09:19:30.388Z,22.1
2017-10-10T09:24:35.486Z,22.1
2017-10-10T09:29:40.918Z,22.2
2017-10-10T09:34:46.346Z,22.2
2017-10-10T09:39:51.775Z,22.2
2017-10-10T09:44:56.568Z,22.2
2017-10-10T09:50:00.969Z,22.2
2017-10-10T09:55:06.400Z,22.2
2017-10-10T10:00:11.486Z,22.2
2017-10-10T10:05:16.571Z,22.1
2017-10-10T10:10:21.659Z,22.2
2017-10-10T10:15:26.053Z,22.2
2017-10-10T10:20:31.494Z,22.2
2017-10-10T10:25:36.909Z,22.2
2017-10-10T10:30:41.993Z,22.3
2017-10-10T10:35:46.735Z,22.3
2017-10-10T10:40:52.319Z,22.3
2017-10-10T10:45:57.068Z,22.3
2017-10-10T10:51:02.150Z,22.3
2017-10-10T10:56:07.581Z,22.4
2017-10-10T11:01:13.010Z,22.4
2017-10-10T11:06:18.793Z,22.4
2017-10-10T11:11:23.540Z,22.4
2017-10-10T11:16:28.976Z,22.4
2017-10-10T11:21:34.061Z,22.4
2017-10-10T11:26:39.838Z,22.5
2017-10-10T11:31:45.619Z,22.5
2017-10-10T11:36:51.049Z,22.6
2017-10-10T11:41:56.826Z,22.6
2017-10-10T11:47:01.916Z,22.6
2017-10-10T11:52:07.003Z,22.6
2017-10-10T11:57:13.121Z,22.6
2017-10-10T12:02:17.518Z,22.6
2017-10-10T12:07:23.297Z,22.6
2017-10-10T12:12:28.386Z,22.6
2017-10-10T12:17:33.474Z,22.6
2017-10-10T12:22:38.561Z,22.7
2017-10-10T12:27:43.995Z,22.7
2017-10-10T12:32:49.424Z,22.7
2017-10-10T12:37:53.823Z,22.7
2017-10-10T12:42:59.278Z,22.7
2017-10-10T12:48:05.039Z,22.7
2017-10-10T12:53:10.460Z,22.7
2017-10-10T12:58:15.546Z,22.7
2017-10-10T13:03:20.976Z,22.7
2017-10-10T13:08:25.720Z,22.7
2017-10-10T13:13:30.465Z,22.7
2017-10-10T13:18:35.205Z,22.7
2017-10-10T13:23:40.635Z,22.7
2017-10-10T13:28:45.383Z,22.6
2017-10-10T13:33:50.813Z,22.6
2017-10-10T13:38:56.244Z,22.6
2017-10-10T13:44:01.723Z,22.6
2017-10-10T13:49:06.815Z,22.6
2017-10-10T13:54:11.900Z,22.6
2017-10-10T13:59:18.020Z,22.6
2017-10-10T14:04:22.768Z,22.6
2017-10-10T14:09:28.888Z,22.5
2017-10-10T14:14:34.317Z,22.6
2017-10-10T14:19:40.093Z,22.5
2017-10-10T14:24:45.866Z,22.5
2017-10-10T14:29:50.949Z,22.5
2017-10-10T14:34:56.037Z,22.5
2017-10-10T14:40:00.790Z,22.5
2017-10-10T14:45:06.568Z,22.5
2017-10-10T14:50:12.001Z,22.5
2017-10-10T14:55:17.089Z,22.5
2017-10-10T15:00:22.872Z,22.5
2017-10-10T15:05:28.312Z,22.5
2017-10-10T15:10:34.100Z,22.5
2017-10-10T15:15:39.540Z,22.6
2017-10-10T15:20:44.301Z,22.6
2017-10-10T15:25:48.359Z,22.6
2017-10-10T15:30:52.420Z,22.6
2017-10-10T15:35:58.210Z,22.6
2017-10-10T15:41:04.000Z,22.6
2017-10-10T15:46:09.438Z,22.6
2017-10-10T15:51:15.280Z,22.6
2017-10-10T15:56:21.094Z,22.7
2017-10-10T16:01:25.493Z,22.7
2017-10-10T16:06:31.282Z,22.6
2017-10-10T16:11:36.762Z,22.6
2017-10-10T16:16:41.209Z,22.6
2017-10-10T16:21:47.375Z,22.6
2017-10-10T16:26:52.474Z,22.6
2017-10-10T16:31:57.222Z,22.6
2017-10-10T16:37:03.340Z,22.6
2017-10-10T16:42:09.120Z,22.6
2017-10-10T16:47:13.876Z,22.6
2017-10-10T16:52:18.966Z,22.6
2017-10-10T16:57:24.050Z,22.6
2017-10-10T17:02:28.795Z,22.6
2017-10-10T17:07:34.225Z,22.6
2017-10-10T17:12:39.657Z,22.6
2017-10-10T17:17:45.432Z,22.6
2017-10-10T17:22:51.663Z,22.6
2017-10-10T17:27:57.110Z,22.6
2017-10-10T17:33:02.539Z,22.6
2017-10-10T17:38:07.969Z,22.6
2017-10-10T17:43:12.728Z,22.6
2017-10-10T17:48:18.502Z,22.6
2017-10-10T17:53:23.940Z,22.6
2017-10-10T17:58:29.032Z,22.6
2017-10-10T18:03:34.810Z,22.6
2017-10-10T18:08:39.563Z,22.6
2017-10-10T18:13:44.655Z,22.7
2017-10-10T18:18:50.439Z,22.7
2017-10-10T18:23:55.884Z,22.7
2017-10-10T18:29:01.323Z,22.7
2017-10-10T18:34:06.076Z,22.7
2017-10-10T18:39:11.195Z,22.7
2017-10-10T18:44:16.635Z,22.7
2017-10-10T18:49:22.073Z,22.7
2017-10-10T18:54:27.956Z,22.7
2017-10-10T18:59:33.791Z,22.7
2017-10-10T19:04:39.288Z,22.7
2017-10-10T19:09:44.398Z,22.7
2017-10-10T19:14:49.867Z,22.7
2017-10-10T19:19:55.320Z,22.7
2017-10-10T19:25:00.075Z,22.7
2017-10-10T19:30:05.858Z,22.7
2017-10-10T19:35:10.275Z,22.7
2017-10-10T19:40:16.060Z,22.7
2017-10-10T19:45:21.155Z,22.7
2017-10-10T19:50:25.986Z,22.7
2017-10-10T19:55:30.402Z,22.7
2017-10-10T20:00:36.539Z,22.7
2017-10-10T20:05:41.626Z,22.7
2017-10-10T20:10:46.721Z,22.7
2017-10-10T20:15:51.877Z,22.8
2017-10-10T20:20:57.024Z,22.8
2017-10-10T20:26:01.829Z,22.8
2017-10-10T20:31:06.920Z,22.8
2017-10-10T20:36:11.341Z,22.8
2017-10-10T20:41:16.772Z,22.8
2017-10-10T20:46:21.885Z,22.7
2017-10-10T20:51:27.071Z,22.8
2017-10-10T20:56:31.813Z,22.8
2017-10-10T21:01:37.589Z,22.8
2017-10-10T21:06:42.332Z,22.8
2017-10-10T21:11:46.741Z,22.8
2017-10-10T21:16:51.823Z,22.8
2017-10-10T21:21:56.923Z,22.8
2017-10-10T21:27:02.368Z,22.8
2017-10-10T21:32:07.455Z,22.8
2017-10-10T21:37:13.227Z,22.8
2017-10-10T21:42:18.997Z,22.8
2017-10-10T21:47:24.082Z,22.8
2017-10-10T21:52:28.137Z,22.8
2017-10-10T21:57:32.881Z,22.8
2017-10-10T22:02:38.659Z,22.8
2017-10-10T22:07:43.753Z,22.8
2017-10-10T22:12:49.180Z,22.8
2017-10-10T22:17:54.313Z,22.8
2017-10-10T22:22:59.760Z,22.8
2017-10-10T22:28:05.877Z,22.8
2017-10-10T22:33:10.963Z,22.8
2017-10-10T22:38:16.389Z,22.8
2017-10-10T22:43:21.827Z,22.8
2017-10-10T22:48:27.262Z,22.8
2017-10-10T22:53:32.345Z,22.8
2017-10-10T22:58:38.136Z,22.8
2017-10-10T23:03:43.568Z,22.8
2017-10-10T23:08:48.327Z,22.8
2017-10-10T23:13:52.720Z,22.8
2017-10-10T23:18:58.159Z,22.8
2017-10-10T23:24:03.245Z,22.8
2017-10-10T23:29:08.004Z,22.8
2017-10-10T23:34:13.422Z,22.8
2017-10-10T23:39:19.200Z,22.8
2017-10-10T23:44:24.978Z,22.8
2017-10-10T23:49:30.747Z,22.8
2017-10-10T23:54:36.866Z,22.8
2017-10-10T23:59:41.956Z,22.8
